Melody — 3FBS7 — position and weather

sailwx.info

Track history (hours):
 
Tides and Currents Weather Stations Pressure Air Temp Water Temp Dewpoint Dewpoint Depression Visibility Wind Speed Wind Dir Waves Ship Positions

Melody

Operator: Mediterranean Shipping Company

Last reported at 2018-Oct-03 18:26 UTC. Time now 2018-Nov-14 03:09 UTC.
Position N 29°09' W 094°27'.
Warning: this ship's position is 41 days out of date.

Length 225 m; draft 12.1 m.

Type: Tanker. MMSI: 371669000.

Date/timePositionNaut miles runAvg speedWind from/ knotsBaromVisibWave heightAir tempDewpointWater temp
2018-Oct-03 18:26N 29°09' W 094°27'514.3
2018-Oct-03 18:03N 29°13' W 094°31'114.2
2018-Oct-03 18:00N 29°13' W 094°32'612.6
2018-Oct-03 17:30N 29°18' W 094°37'612.9
2018-Oct-03 17:04N 29°21' W 094°43'113.7
2018-Oct-03 17:00N 29°21' W 094°43'611.7
2018-Oct-03 16:30N 29°24' W 094°49'511.6
2018-Oct-03 16:03N 29°29' W 094°51'111.6
2018-Oct-03 16:00N 29°29' W 094°52'611.2
2018-Oct-03 15:30N 29°34' W 094°55'510.6
2018-Oct-03 15:03N 29°38' W 094°58'110.2
2018-Oct-03 15:00N 29°39' W 094°58'4 8.5
2018-Oct-03 14:30N 29°42' W 095°01'3 6.3
2018-Oct-03 14:03N 29°44' W 095°03'0 7.4
2018-Oct-03 14:00N 29°44' W 095°03'2 4.9
2018-Oct-03 13:30N 29°45' W 095°06'1 0.2
2018-Oct-03 07:45N 29°44' W 095°07'0 0.0
2018-Oct-03 05:06N 29°44' W 095°07'0 0.0
2018-Oct-03 05:00N 29°44' W 095°07'0 0.0
2018-Oct-03 04:30N 29°44' W 095°07'0 0.0
2018-Oct-03 03:27N 29°44' W 095°07'0 0.0
2018-Oct-03 02:09N 29°44' W 095°07'0 0.0
2018-Oct-03 01:51N 29°44' W 095°07'0 0.0
2018-Oct-03 01:30N 29°44' W 095°07'  
2018-Sep-30 07:30N 29°44' W 095°07'1 2.0
2018-Sep-30 07:03N 29°45' W 095°06'0 5.0
2018-Sep-30 07:00N 29°45' W 095°06'2 4.5
2018-Sep-30 06:28N 29°44' W 095°03'3 6.7
2018-Sep-30 06:03N 29°42' W 095°01'0 9.7
2018-Sep-30 06:01N 29°42' W 095°01'510.7
2018-Sep-30 05:31N 29°38' W 094°58'613.1
2018-Sep-30 05:04N 29°32' W 094°54'113.5
2018-Sep-30 05:00N 29°32' W 094°54'714.0
2018-Sep-30 04:30N 29°26' W 094°50'614.2
2018-Sep-30 04:03N 29°21' W 094°46'115.1
2018-Sep-30 04:00N 29°21' W 094°45'1 1.9
2018-Sep-30 03:25N 29°21' W 094°44'0 0.0
2018-Sep-30 03:01N 29°21' W 094°44'0 0.1
2018-Sep-30 02:58N 29°21' W 094°44'0 0.0
2018-Sep-30 02:25N 29°21' W 094°44'0 0.0
2018-Sep-30 01:58N 29°21' W 094°44'0 0.1
2018-Sep-30 01:28N 29°21' W 094°44'0 0.0
2018-Sep-30 01:01N 29°21' W 094°44'0 0.1
2018-Sep-30 00:52N 29°21' W 094°44'0 0.0
2018-Sep-30 00:28N 29°21' W 094°44'0 0.0
2018-Sep-29 23:58N 29°21' W 094°44'0 0.0
2018-Sep-29 23:25N 29°21' W 094°44'0 0.0
2018-Sep-29 22:49N 29°21' W 094°44'0 0.1
2018-Sep-29 22:28N 29°21' W 094°43'0 0.3
2018-Sep-29 22:01N 29°21' W 094°43'0 0.2
2018-Sep-29 21:58N 29°21' W 094°43'0 0.1
2018-Sep-29 21:25N 29°21' W 094°43'0 0.2
2018-Sep-29 21:01N 29°21' W 094°43'0 0.1
2018-Sep-29 20:52N 29°21' W 094°43'0 0.1
2018-Sep-29 20:25N 29°21' W 094°43'0 0.0
2018-Sep-29 19:58N 29°21' W 094°43'0 0.0
2018-Sep-29 19:28N 29°21' W 094°43'0 0.0
2018-Sep-29 19:01N 29°21' W 094°43'0 0.1
2018-Sep-29 18:58N 29°21' W 094°43'0 0.0
2018-Sep-29 18:28N 29°21' W 094°43'0 0.1
2018-Sep-29 18:01N 29°21' W 094°43'0 0.1
2018-Sep-29 17:58N 29°21' W 094°43'0 0.0
2018-Sep-29 17:28N 29°21' W 094°43'0 0.0
2018-Sep-29 17:03N 29°21' W 094°43'0 0.3
2018-Sep-29 17:00N 29°21' W 094°43'0 0.1
2018-Sep-29 16:30N 29°21' W 094°43'2 5.1
2018-Sep-29 16:01N 29°20' W 094°41'012.0
2018-Sep-29 16:00N 29°20' W 094°41'612.6
2018-Sep-29 15:30N 29°16' W 094°34'4 9.9
2018-Sep-29 15:03N 29°14' W 094°31'0 8.5
2018-Sep-29 15:00N 29°13' W 094°30'710.3
2018-Sep-29 14:22N 29°08' W 094°25'  
2018-Sep-25 17:21N 09°32' W 079°55'414.0
2018-Sep-25 17:03N 09°28' W 079°55'114.1
2018-Sep-25 17:00N 09°27' W 079°55'612.4
2018-Sep-25 16:30N 09°21' W 079°55'3 7.6
2018-Sep-25 16:03N 09°18' W 079°55'0 7.4
2018-Sep-25 16:00N 09°17' W 079°55'1 1.6
2018-Sep-25 15:31N 09°16' W 079°55'0 0.6
2018-Sep-25 15:04N 09°16' W 079°55'0 0.0
2018-Sep-25 15:00N 09°16' W 079°55'1 0.8
2018-Sep-25 14:02N 09°15' W 079°55'0 2.6
2018-Sep-25 13:59N 09°15' W 079°55'1 3.0
2018-Sep-25 13:30N 09°14' W 079°55'2 1.3
2018-Sep-25 12:21N 09°13' W 079°56'0 0.1
2018-Sep-25 11:45N 09°13' W 079°56'0 0.3
2018-Sep-25 11:09N 09°13' W 079°56'0 3.9
2018-Sep-25 11:03N 09°13' W 079°55'0 4.5
2018-Sep-25 10:59N 09°13' W 079°55'  
Track history (hours):
 
Tides and Currents Weather Stations Pressure Air Temp Water Temp Dewpoint Dewpoint Depression Visibility Wind Speed Wind Dir Waves Ship Positions

Melody

Operator: Mediterranean Shipping Company

Last reported at 2018-Oct-03 18:26 UTC. Time now 2018-Nov-14 03:09 UTC.
Position N 29°09' W 094°27'.
Warning: this ship's position is 41 days out of date.

Length 225 m; draft 12.1 m.

Type: Tanker. MMSI: 371669000.

Date/timePositionNaut miles runAvg speedWind from/ knotsBaromVisibWave heightAir tempDewpointWater temp
2018-Oct-03 18:26N 29°09' W 094°27'514.3
2018-Oct-03 18:03N 29°13' W 094°31'114.2
2018-Oct-03 18:00N 29°13' W 094°32'612.6
2018-Oct-03 17:30N 29°18' W 094°37'612.9
2018-Oct-03 17:04N 29°21' W 094°43'113.7
2018-Oct-03 17:00N 29°21' W 094°43'611.7
2018-Oct-03 16:30N 29°24' W 094°49'511.6
2018-Oct-03 16:03N 29°29' W 094°51'111.6
2018-Oct-03 16:00N 29°29' W 094°52'611.2
2018-Oct-03 15:30N 29°34' W 094°55'510.6
2018-Oct-03 15:03N 29°38' W 094°58'110.2
2018-Oct-03 15:00N 29°39' W 094°58'4 8.5
2018-Oct-03 14:30N 29°42' W 095°01'3 6.3
2018-Oct-03 14:03N 29°44' W 095°03'0 7.4
2018-Oct-03 14:00N 29°44' W 095°03'2 4.9
2018-Oct-03 13:30N 29°45' W 095°06'1 0.2
2018-Oct-03 07:45N 29°44' W 095°07'0 0.0
2018-Oct-03 05:06N 29°44' W 095°07'0 0.0
2018-Oct-03 05:00N 29°44' W 095°07'0 0.0
2018-Oct-03 04:30N 29°44' W 095°07'0 0.0
2018-Oct-03 03:27N 29°44' W 095°07'0 0.0
2018-Oct-03 02:09N 29°44' W 095°07'0 0.0
2018-Oct-03 01:51N 29°44' W 095°07'0 0.0
2018-Oct-03 01:30N 29°44' W 095°07'  
2018-Sep-30 07:30N 29°44' W 095°07'1 2.0
2018-Sep-30 07:03N 29°45' W 095°06'0 5.0
2018-Sep-30 07:00N 29°45' W 095°06'2 4.5
2018-Sep-30 06:28N 29°44' W 095°03'3 6.7
2018-Sep-30 06:03N 29°42' W 095°01'0 9.7
2018-Sep-30 06:01N 29°42' W 095°01'510.7
2018-Sep-30 05:31N 29°38' W 094°58'613.1
2018-Sep-30 05:04N 29°32' W 094°54'113.5
2018-Sep-30 05:00N 29°32' W 094°54'714.0
2018-Sep-30 04:30N 29°26' W 094°50'614.2
2018-Sep-30 04:03N 29°21' W 094°46'115.1
2018-Sep-30 04:00N 29°21' W 094°45'1 1.9
2018-Sep-30 03:25N 29°21' W 094°44'0 0.0
2018-Sep-30 03:01N 29°21' W 094°44'0 0.1
2018-Sep-30 02:58N 29°21' W 094°44'0 0.0
2018-Sep-30 02:25N 29°21' W 094°44'0 0.0
2018-Sep-30 01:58N 29°21' W 094°44'0 0.1
2018-Sep-30 01:28N 29°21' W 094°44'0 0.0
2018-Sep-30 01:01N 29°21' W 094°44'0 0.1
2018-Sep-30 00:52N 29°21' W 094°44'0 0.0
2018-Sep-30 00:28N 29°21' W 094°44'0 0.0
2018-Sep-29 23:58N 29°21' W 094°44'0 0.0
2018-Sep-29 23:25N 29°21' W 094°44'0 0.0
2018-Sep-29 22:49N 29°21' W 094°44'0 0.1
2018-Sep-29 22:28N 29°21' W 094°43'0 0.3
2018-Sep-29 22:01N 29°21' W 094°43'0 0.2
2018-Sep-29 21:58N 29°21' W 094°43'0 0.1
2018-Sep-29 21:25N 29°21' W 094°43'0 0.2
2018-Sep-29 21:01N 29°21' W 094°43'0 0.1
2018-Sep-29 20:52N 29°21' W 094°43'0 0.1
2018-Sep-29 20:25N 29°21' W 094°43'0 0.0
2018-Sep-29 19:58N 29°21' W 094°43'0 0.0
2018-Sep-29 19:28N 29°21' W 094°43'0 0.0
2018-Sep-29 19:01N 29°21' W 094°43'0 0.1
2018-Sep-29 18:58N 29°21' W 094°43'0 0.0
2018-Sep-29 18:28N 29°21' W 094°43'0 0.1
2018-Sep-29 18:01N 29°21' W 094°43'0 0.1
2018-Sep-29 17:58N 29°21' W 094°43'0 0.0
2018-Sep-29 17:28N 29°21' W 094°43'0 0.0
2018-Sep-29 17:03N 29°21' W 094°43'0 0.3
2018-Sep-29 17:00N 29°21' W 094°43'0 0.1
2018-Sep-29 16:30N 29°21' W 094°43'2 5.1
2018-Sep-29 16:01N 29°20' W 094°41'012.0
2018-Sep-29 16:00N 29°20' W 094°41'612.6
2018-Sep-29 15:30N 29°16' W 094°34'4 9.9
2018-Sep-29 15:03N 29°14' W 094°31'0 8.5
2018-Sep-29 15:00N 29°13' W 094°30'710.3
2018-Sep-29 14:22N 29°08' W 094°25'  
2018-Sep-25 17:21N 09°32' W 079°55'414.0
2018-Sep-25 17:03N 09°28' W 079°55'114.1
2018-Sep-25 17:00N 09°27' W 079°55'612.4
2018-Sep-25 16:30N 09°21' W 079°55'3 7.6
2018-Sep-25 16:03N 09°18' W 079°55'0 7.4
2018-Sep-25 16:00N 09°17' W 079°55'1 1.6
2018-Sep-25 15:31N 09°16' W 079°55'0 0.6
2018-Sep-25 15:04N 09°16' W 079°55'0 0.0
2018-Sep-25 15:00N 09°16' W 079°55'1 0.8
2018-Sep-25 14:02N 09°15' W 079°55'0 2.6
2018-Sep-25 13:59N 09°15' W 079°55'1 3.0
2018-Sep-25 13:30N 09°14' W 079°55'2 1.3
2018-Sep-25 12:21N 09°13' W 079°56'0 0.1
2018-Sep-25 11:45N 09°13' W 079°56'0 0.3
2018-Sep-25 11:09N 09°13' W 079°56'0 3.9
2018-Sep-25 11:03N 09°13' W 079°55'0 4.5
2018-Sep-25 10:59N 09°13' W 079°55'  

Dump ship's entire track history